sensor_id;sensor_type;location;lat;lon;timestamp;temperature;humidity
13694;DHT22;6919;52.344;14.518;2023-07-29T00:01:17;17.90;99.90
13694;DHT22;6919;52.344;14.518;2023-07-29T00:03:45;17.90;99.90
13694;DHT22;6919;52.344;14.518;2023-07-29T00:06:14;17.90;99.90
13694;DHT22;6919;52.344;14.518;2023-07-29T00:08:42;17.90;99.90
13694;DHT22;6919;52.344;14.518;2023-07-29T00:11:10;17.80;99.90
13694;DHT22;6919;52.344;14.518;2023-07-29T00:13:38;17.70;99.90
13694;DHT22;6919;52.344;14.518;2023-07-29T00:16:08;17.70;99.90
13694;DHT22;6919;52.344;14.518;2023-07-29T00:18:36;17.80;99.90
13694;DHT22;6919;52.344;14.518;2023-07-29T00:21:05;17.80;99.90
13694;DHT22;6919;52.344;14.518;2023-07-29T00:23:33;17.70;99.90
13694;DHT22;6919;52.344;14.518;2023-07-29T00:26:01;17.70;99.90
13694;DHT22;6919;52.344;14.518;2023-07-29T00:28:30;17.70;99.90
13694;DHT22;6919;52.344;14.518;2023-07-29T00:30:58;17.80;99.90
13694;DHT22;6919;52.344;14.518;2023-07-29T00:33:28;17.80;99.90
13694;DHT22;6919;52.344;14.518;2023-07-29T00:35:56;17.80;99.90
13694;DHT22;6919;52.344;14.518;2023-07-29T00:38:28;17.80;99.90
13694;DHT22;6919;52.344;14.518;2023-07-29T00:40:57;17.80;99.90
13694;DHT22;6919;52.344;14.518;2023-07-29T00:43:28;17.70;99.90
13694;DHT22;6919;52.344;14.518;2023-07-29T00:45:56;17.80;99.90
13694;DHT22;6919;52.344;14.518;2023-07-29T00:48:28;17.70;99.90
13694;DHT22;6919;52.344;14.518;2023-07-29T00:50:57;17.70;99.90
13694;DHT22;6919;52.344;14.518;2023-07-29T00:53:25;17.60;99.90
13694;DHT22;6919;52.344;14.518;2023-07-29T00:55:55;17.60;99.90
13694;DHT22;6919;52.344;14.518;2023-07-29T00:58:24;17.60;99.90
13694;DHT22;6919;52.344;14.518;2023-07-29T01:00:53;17.40;99.90
13694;DHT22;6919;52.344;14.518;2023-07-29T01:03:22;17.40;99.90
13694;DHT22;6919;52.344;14.518;2023-07-29T01:06:08;17.40;99.90
13694;DHT22;6919;52.344;14.518;2023-07-29T01:08:46;17.30;99.90
13694;DHT22;6919;52.344;14.518;2023-07-29T01:11:33;17.40;99.90
13694;DHT22;6919;52.344;14.518;2023-07-29T01:14:17;17.30;99.90
13694;DHT22;6919;52.344;14.518;2023-07-29T01:16:54;17.40;99.90
13694;DHT22;6919;52.344;14.518;2023-07-29T01:19:43;17.30;99.90
13694;DHT22;6919;52.344;14.518;2023-07-29T01:22:24;17.30;99.90
13694;DHT22;6919;52.344;14.518;2023-07-29T01:24:54;17.20;99.90
13694;DHT22;6919;52.344;14.518;2023-07-29T01:27:22;17.10;99.90
13694;DHT22;6919;52.344;14.518;2023-07-29T01:29:51;17.00;99.90
13694;DHT22;6919;52.344;14.518;2023-07-29T01:32:25;17.00;99.90
13694;DHT22;6919;52.344;14.518;2023-07-29T01:35:03;17.00;99.90
13694;DHT22;6919;52.344;14.518;2023-07-29T01:37:37;17.00;99.90
13694;DHT22;6919;52.344;14.518;2023-07-29T01:40:10;17.00;99.90
13694;DHT22;6919;52.344;14.518;2023-07-29T01:42:39;17.00;99.90
13694;DHT22;6919;52.344;14.518;2023-07-29T01:45:08;16.90;99.90
13694;DHT22;6919;52.344;14.518;2023-07-29T01:47:36;16.80;99.90
13694;DHT22;6919;52.344;14.518;2023-07-29T01:50:08;16.80;99.90
13694;DHT22;6919;52.344;14.518;2023-07-29T01:52:37;16.90;99.90
13694;DHT22;6919;52.344;14.518;2023-07-29T01:55:06;16.80;99.90
13694;DHT22;6919;52.344;14.518;2023-07-29T01:57:36;16.70;99.90
13694;DHT22;6919;52.344;14.518;2023-07-29T02:00:05;16.70;99.90
13694;DHT22;6919;52.344;14.518;2023-07-29T02:02:34;16.60;99.90
13694;DHT22;6919;52.344;14.518;2023-07-29T02:05:03;16.50;99.90
13694;DHT22;6919;52.344;14.518;2023-07-29T02:07:32;16.40;99.90
13694;DHT22;6919;52.344;14.518;2023-07-29T02:10:00;16.40;99.90
13694;DHT22;6919;52.344;14.518;2023-07-29T02:12:28;16.40;99.90
13694;DHT22;6919;52.344;14.518;2023-07-29T02:14:58;16.40;99.90
13694;DHT22;6919;52.344;14.518;2023-07-29T02:17:26;16.30;99.90
13694;DHT22;6919;52.344;14.518;2023-07-29T02:19:54;16.30;99.90
13694;DHT22;6919;52.344;14.518;2023-07-29T02:22:23;16.30;99.90
13694;DHT22;6919;52.344;14.518;2023-07-29T02:24:51;16.30;99.90
13694;DHT22;6919;52.344;14.518;2023-07-29T02:27:19;16.20;99.90
13694;DHT22;6919;52.344;14.518;2023-07-29T02:29:47;16.10;99.90
13694;DHT22;6919;52.344;14.518;2023-07-29T02:32:17;16.10;99.90
13694;DHT22;6919;52.344;14.518;2023-07-29T02:34:45;16.20;99.90
13694;DHT22;6919;52.344;14.518;2023-07-29T02:37:14;16.10;99.90
13694;DHT22;6919;52.344;14.518;2023-07-29T02:39:42;16.10;99.90
13694;DHT22;6919;52.344;14.518;2023-07-29T02:42:10;16.10;99.90
13694;DHT22;6919;52.344;14.518;2023-07-29T02:44:39;16.10;99.90
13694;DHT22;6919;52.344;14.518;2023-07-29T02:47:08;16.10;99.90
13694;DHT22;6919;52.344;14.518;2023-07-29T02:49:38;16.20;99.90
13694;DHT22;6919;52.344;14.518;2023-07-29T02:52:07;16.10;99.90
13694;DHT22;6919;52.344;14.518;2023-07-29T02:54:36;16.00;99.90
13694;DHT22;6919;52.344;14.518;2023-07-29T02:57:04;16.00;99.90
13694;DHT22;6919;52.344;14.518;2023-07-29T02:59:32;15.90;99.90
13694;DHT22;6919;52.344;14.518;2023-07-29T03:02:01;16.00;99.90
13694;DHT22;6919;52.344;14.518;2023-07-29T03:04:29;15.90;99.90
13694;DHT22;6919;52.344;14.518;2023-07-29T03:07:01;15.90;99.90
13694;DHT22;6919;52.344;14.518;2023-07-29T03:09:30;15.90;99.90
13694;DHT22;6919;52.344;14.518;2023-07-29T03:11:59;15.90;99.90
13694;DHT22;6919;52.344;14.518;2023-07-29T03:14:28;15.90;99.90
13694;DHT22;6919;52.344;14.518;2023-07-29T03:16:56;15.90;99.90
13694;DHT22;6919;52.344;14.518;2023-07-29T03:19:25;15.90;99.90
13694;DHT22;6919;52.344;14.518;2023-07-29T03:21:53;15.90;99.90
13694;DHT22;6919;52.344;14.518;2023-07-29T03:24:22;16.00;99.90
13694;DHT22;6919;52.344;14.518;2023-07-29T03:26:54;16.10;99.90
13694;DHT22;6919;52.344;14.518;2023-07-29T03:29:22;16.10;99.90
13694;DHT22;6919;52.344;14.518;2023-07-29T03:31:50;16.20;99.90
13694;DHT22;6919;52.344;14.518;2023-07-29T03:34:18;16.20;99.90
13694;DHT22;6919;52.344;14.518;2023-07-29T03:36:46;16.20;99.90
13694;DHT22;6919;52.344;14.518;2023-07-29T03:39:15;16.10;99.90
13694;DHT22;6919;52.344;14.518;2023-07-29T03:41:45;16.20;99.90
13694;DHT22;6919;52.344;14.518;2023-07-29T03:44:13;16.20;99.90
13694;DHT22;6919;52.344;14.518;2023-07-29T03:46:45;16.10;99.90
13694;DHT22;6919;52.344;14.518;2023-07-29T03:49:13;16.20;99.90
13694;DHT22;6919;52.344;14.518;2023-07-29T03:51:41;16.10;99.90
13694;DHT22;6919;52.344;14.518;2023-07-29T03:54:09;16.10;99.90
13694;DHT22;6919;52.344;14.518;2023-07-29T03:56:38;16.20;99.90
13694;DHT22;6919;52.344;14.518;2023-07-29T03:59:07;16.30;99.90
13694;DHT22;6919;52.344;14.518;2023-07-29T04:01:35;16.30;99.90
13694;DHT22;6919;52.344;14.518;2023-07-29T04:04:04;16.30;99.90
13694;DHT22;6919;52.344;14.518;2023-07-29T04:06:32;16.50;99.90
13694;DHT22;6919;52.344;14.518;2023-07-29T04:09:01;16.50;99.90
13694;DHT22;6919;52.344;14.518;2023-07-29T04:11:30;16.60;99.90
13694;DHT22;6919;52.344;14.518;2023-07-29T04:13:58;16.70;99.90
13694;DHT22;6919;52.344;14.518;2023-07-29T04:16:28;16.70;99.90
13694;DHT22;6919;52.344;14.518;2023-07-29T04:18:56;16.70;99.90
13694;DHT22;6919;52.344;14.518;2023-07-29T04:21:25;16.90;99.90
13694;DHT22;6919;52.344;14.518;2023-07-29T04:23:54;17.00;99.90
13694;DHT22;6919;52.344;14.518;2023-07-29T04:26:22;17.00;99.90
13694;DHT22;6919;52.344;14.518;2023-07-29T04:28:50;17.30;99.90
13694;DHT22;6919;52.344;14.518;2023-07-29T04:31:18;17.30;99.90
13694;DHT22;6919;52.344;14.518;2023-07-29T04:33:48;17.40;99.90
13694;DHT22;6919;52.344;14.518;2023-07-29T04:36:16;17.40;99.90
13694;DHT22;6919;52.344;14.518;2023-07-29T04:38:45;17.60;99.90
13694;DHT22;6919;52.344;14.518;2023-07-29T04:41:13;17.50;99.90
13694;DHT22;6919;52.344;14.518;2023-07-29T04:43:41;17.70;99.90
13694;DHT22;6919;52.344;14.518;2023-07-29T04:46:10;17.60;99.90
13694;DHT22;6919;52.344;14.518;2023-07-29T04:48:38;17.80;99.90
13694;DHT22;6919;52.344;14.518;2023-07-29T04:51:07;17.80;99.90
13694;DHT22;6919;52.344;14.518;2023-07-29T04:53:36;17.90;99.90
13694;DHT22;6919;52.344;14.518;2023-07-29T04:56:05;18.10;99.90
13694;DHT22;6919;52.344;14.518;2023-07-29T04:58:33;18.20;99.90
13694;DHT22;6919;52.344;14.518;2023-07-29T05:01:02;18.20;99.90
13694;DHT22;6919;52.344;14.518;2023-07-29T05:03:31;18.50;99.90
13694;DHT22;6919;52.344;14.518;2023-07-29T05:05:59;18.50;99.90
13694;DHT22;6919;52.344;14.518;2023-07-29T05:08:29;18.60;99.90
13694;DHT22;6919;52.344;14.518;2023-07-29T05:10:57;18.70;99.90
13694;DHT22;6919;52.344;14.518;2023-07-29T05:13:26;18.80;99.90
13694;DHT22;6919;52.344;14.518;2023-07-29T05:15:54;18.90;99.90
13694;DHT22;6919;52.344;14.518;2023-07-29T05:18:22;18.90;99.90
13694;DHT22;6919;52.344;14.518;2023-07-29T05:20:51;19.10;99.90
13694;DHT22;6919;52.344;14.518;2023-07-29T05:23:19;19.20;99.90
13694;DHT22;6919;52.344;14.518;2023-07-29T05:25:49;19.20;99.90
13694;DHT22;6919;52.344;14.518;2023-07-29T05:28:17;19.60;99.90
13694;DHT22;6919;52.344;14.518;2023-07-29T05:30:45;19.70;99.90
13694;DHT22;6919;52.344;14.518;2023-07-29T05:33:13;19.70;99.90
13694;DHT22;6919;52.344;14.518;2023-07-29T05:35:42;19.80;99.90
13694;DHT22;6919;52.344;14.518;2023-07-29T05:38:10;20.00;99.90
13694;DHT22;6919;52.344;14.518;2023-07-29T05:40:38;20.40;99.90
13694;DHT22;6919;52.344;14.518;2023-07-29T05:43:08;20.70;99.90
13694;DHT22;6919;52.344;14.518;2023-07-29T05:45:36;20.70;99.90
13694;DHT22;6919;52.344;14.518;2023-07-29T05:48:05;21.00;99.90
13694;DHT22;6919;52.344;14.518;2023-07-29T05:50:33;21.00;99.90
13694;DHT22;6919;52.344;14.518;2023-07-29T05:53:01;21.00;99.90
13694;DHT22;6919;52.344;14.518;2023-07-29T05:55:30;21.00;99.90
13694;DHT22;6919;52.344;14.518;2023-07-29T05:57:58;21.00;99.90
13694;DHT22;6919;52.344;14.518;2023-07-29T06:00:28;20.80;99.90
13694;DHT22;6919;52.344;14.518;2023-07-29T06:02:56;21.10;99.90
13694;DHT22;6919;52.344;14.518;2023-07-29T06:05:24;21.20;99.90
13694;DHT22;6919;52.344;14.518;2023-07-29T06:07:53;21.20;99.90
13694;DHT22;6919;52.344;14.518;2023-07-29T06:10:21;21.60;99.90
13694;DHT22;6919;52.344;14.518;2023-07-29T06:12:50;21.70;99.90
13694;DHT22;6919;52.344;14.518;2023-07-29T06:15:18;21.80;99.90
13694;DHT22;6919;52.344;14.518;2023-07-29T06:17:50;21.80;99.90
13694;DHT22;6919;52.344;14.518;2023-07-29T06:20:22;21.80;99.90
13694;DHT22;6919;52.344;14.518;2023-07-29T06:22:51;21.60;99.90
13694;DHT22;6919;52.344;14.518;2023-07-29T06:25:19;21.70;99.90
13694;DHT22;6919;52.344;14.518;2023-07-29T06:27:49;21.70;99.90
13694;DHT22;6919;52.344;14.518;2023-07-29T06:30:17;21.70;99.90
13694;DHT22;6919;52.344;14.518;2023-07-29T06:32:46;21.90;99.90
13694;DHT22;6919;52.344;14.518;2023-07-29T06:35:16;22.00;99.90
13694;DHT22;6919;52.344;14.518;2023-07-29T06:37:44;22.20;99.90
13694;DHT22;6919;52.344;14.518;2023-07-29T06:40:12;22.50;99.90
13694;DHT22;6919;52.344;14.518;2023-07-29T06:42:41;22.50;99.90
13694;DHT22;6919;52.344;14.518;2023-07-29T06:45:09;22.70;99.90
13694;DHT22;6919;52.344;14.518;2023-07-29T06:47:38;22.70;99.90
13694;DHT22;6919;52.344;14.518;2023-07-29T06:50:07;22.80;99.90
13694;DHT22;6919;52.344;14.518;2023-07-29T06:52:37;23.00;99.90
13694;DHT22;6919;52.344;14.518;2023-07-29T06:55:07;22.70;99.90
13694;DHT22;6919;52.344;14.518;2023-07-29T06:57:36;22.80;99.90
13694;DHT22;6919;52.344;14.518;2023-07-29T07:00:06;22.90;99.90
13694;DHT22;6919;52.344;14.518;2023-07-29T07:02:36;22.80;99.90
13694;DHT22;6919;52.344;14.518;2023-07-29T07:05:04;22.80;99.90
13694;DHT22;6919;52.344;14.518;2023-07-29T07:07:33;23.10;99.90
13694;DHT22;6919;52.344;14.518;2023-07-29T07:10:03;23.10;99.90
13694;DHT22;6919;52.344;14.518;2023-07-29T07:12:32;22.80;99.90
13694;DHT22;6919;52.344;14.518;2023-07-29T07:15:01;22.80;99.90
13694;DHT22;6919;52.344;14.518;2023-07-29T07:17:29;22.90;99.90
13694;DHT22;6919;52.344;14.518;2023-07-29T07:19:58;23.10;99.90
13694;DHT22;6919;52.344;14.518;2023-07-29T07:22:26;23.00;99.90
13694;DHT22;6919;52.344;14.518;2023-07-29T07:24:54;22.70;99.90
13694;DHT22;6919;52.344;14.518;2023-07-29T07:27:24;22.70;99.90
13694;DHT22;6919;52.344;14.518;2023-07-29T07:29:52;22.60;99.90
13694;DHT22;6919;52.344;14.518;2023-07-29T07:32:20;23.10;99.90
13694;DHT22;6919;52.344;14.518;2023-07-29T07:34:49;23.20;99.90
13694;DHT22;6919;52.344;14.518;2023-07-29T07:37:17;23.10;99.90
13694;DHT22;6919;52.344;14.518;2023-07-29T07:39:45;23.10;99.90
13694;DHT22;6919;52.344;14.518;2023-07-29T07:42:13;23.50;99.90
13694;DHT22;6919;52.344;14.518;2023-07-29T07:44:43;23.90;99.90
13694;DHT22;6919;52.344;14.518;2023-07-29T07:47:11;24.20;99.90
13694;DHT22;6919;52.344;14.518;2023-07-29T07:49:39;23.80;99.90
13694;DHT22;6919;52.344;14.518;2023-07-29T07:52:08;23.60;99.90
13694;DHT22;6919;52.344;14.518;2023-07-29T07:54:36;23.60;99.90
13694;DHT22;6919;52.344;14.518;2023-07-29T07:57:05;23.70;99.90
13694;DHT22;6919;52.344;14.518;2023-07-29T07:59:33;24.10;99.90
13694;DHT22;6919;52.344;14.518;2023-07-29T08:02:03;24.30;99.90
13694;DHT22;6919;52.344;14.518;2023-07-29T08:04:32;24.70;99.90
13694;DHT22;6919;52.344;14.518;2023-07-29T08:07:00;24.50;99.90
13694;DHT22;6919;52.344;14.518;2023-07-29T08:09:29;24.40;99.90
13694;DHT22;6919;52.344;14.518;2023-07-29T08:11:57;24.40;99.90
13694;DHT22;6919;52.344;14.518;2023-07-29T08:14:25;24.50;99.90
13694;DHT22;6919;52.344;14.518;2023-07-29T08:16:54;24.80;99.90
13694;DHT22;6919;52.344;14.518;2023-07-29T08:19:23;25.10;99.90
13694;DHT22;6919;52.344;14.518;2023-07-29T08:21:52;25.30;99.90
13694;DHT22;6919;52.344;14.518;2023-07-29T08:24:20;25.30;99.90
13694;DHT22;6919;52.344;14.518;2023-07-29T08:26:48;25.40;99.90
13694;DHT22;6919;52.344;14.518;2023-07-29T08:29:16;25.30;99.90
13694;DHT22;6919;52.344;14.518;2023-07-29T08:31:47;25.00;99.90
13694;DHT22;6919;52.344;14.518;2023-07-29T08:34:17;24.80;99.90
13694;DHT22;6919;52.344;14.518;2023-07-29T08:36:47;24.70;99.90
13694;DHT22;6919;52.344;14.518;2023-07-29T08:39:15;24.50;99.90
13694;DHT22;6919;52.344;14.518;2023-07-29T08:41:49;24.10;99.90
13694;DHT22;6919;52.344;14.518;2023-07-29T08:44:22;23.90;99.90
13694;DHT22;6919;52.344;14.518;2023-07-29T08:46:52;23.70;99.90
13694;DHT22;6919;52.344;14.518;2023-07-29T08:49:22;23.90;99.90
13694;DHT22;6919;52.344;14.518;2023-07-29T08:51:53;24.00;99.90
13694;DHT22;6919;52.344;14.518;2023-07-29T08:54:30;24.20;99.90
13694;DHT22;6919;52.344;14.518;2023-07-29T08:56:59;24.50;99.90
13694;DHT22;6919;52.344;14.518;2023-07-29T08:59:29;24.80;99.90
13694;DHT22;6919;52.344;14.518;2023-07-29T09:01:57;25.00;99.90
13694;DHT22;6919;52.344;14.518;2023-07-29T09:04:29;25.10;99.90
13694;DHT22;6919;52.344;14.518;2023-07-29T09:06:58;24.80;99.90
13694;DHT22;6919;52.344;14.518;2023-07-29T09:09:29;24.70;99.90
13694;DHT22;6919;52.344;14.518;2023-07-29T09:11:57;24.50;99.90
13694;DHT22;6919;52.344;14.518;2023-07-29T09:14:26;24.20;99.90
13694;DHT22;6919;52.344;14.518;2023-07-29T09:16:55;24.00;99.90
13694;DHT22;6919;52.344;14.518;2023-07-29T09:19:25;24.20;99.90
13694;DHT22;6919;52.344;14.518;2023-07-29T09:21:54;24.40;99.90
13694;DHT22;6919;52.344;14.518;2023-07-29T09:24:22;24.60;99.90
13694;DHT22;6919;52.344;14.518;2023-07-29T09:26:52;24.90;99.90
13694;DHT22;6919;52.344;14.518;2023-07-29T09:29:22;24.90;99.90
13694;DHT22;6919;52.344;14.518;2023-07-29T09:31:51;24.90;99.90
13694;DHT22;6919;52.344;14.518;2023-07-29T09:34:19;24.70;99.90
13694;DHT22;6919;52.344;14.518;2023-07-29T09:36:50;24.90;99.90
13694;DHT22;6919;52.344;14.518;2023-07-29T09:39:23;25.30;99.90
13694;DHT22;6919;52.344;14.518;2023-07-29T09:41:53;25.50;99.90
13694;DHT22;6919;52.344;14.518;2023-07-29T09:44:21;25.70;99.90
13694;DHT22;6919;52.344;14.518;2023-07-29T09:46:49;25.50;99.90
13694;DHT22;6919;52.344;14.518;2023-07-29T09:49:17;25.50;99.90
13694;DHT22;6919;52.344;14.518;2023-07-29T09:51:45;25.50;99.90
13694;DHT22;6919;52.344;14.518;2023-07-29T09:54:14;25.70;99.90
13694;DHT22;6919;52.344;14.518;2023-07-29T09:56:42;25.90;99.90
13694;DHT22;6919;52.344;14.518;2023-07-29T09:59:13;26.30;99.90
13694;DHT22;6919;52.344;14.518;2023-07-29T10:01:41;26.10;99.90
13694;DHT22;6919;52.344;14.518;2023-07-29T10:04:11;26.00;99.90
13694;DHT22;6919;52.344;14.518;2023-07-29T10:06:41;25.90;99.90
13694;DHT22;6919;52.344;14.518;2023-07-29T10:09:11;25.70;99.90
13694;DHT22;6919;52.344;14.518;2023-07-29T10:11:40;25.40;99.90
13694;DHT22;6919;52.344;14.518;2023-07-29T10:14:10;25.60;99.90
13694;DHT22;6919;52.344;14.518;2023-07-29T10:16:41;25.60;99.90
13694;DHT22;6919;52.344;14.518;2023-07-29T10:19:12;26.10;99.90
13694;DHT22;6919;52.344;14.518;2023-07-29T10:21:44;26.10;99.90
13694;DHT22;6919;52.344;14.518;2023-07-29T10:24:19;26.10;99.90
13694;DHT22;6919;52.344;14.518;2023-07-29T10:26:57;26.40;99.90
13694;DHT22;6919;52.344;14.518;2023-07-29T10:29:30;26.60;99.90
13694;DHT22;6919;52.344;14.518;2023-07-29T10:32:02;26.60;99.90
13694;DHT22;6919;52.344;14.518;2023-07-29T10:34:33;26.40;99.90
13694;DHT22;6919;52.344;14.518;2023-07-29T10:37:03;26.70;99.90
13694;DHT22;6919;52.344;14.518;2023-07-29T10:39:38;26.70;99.90
13694;DHT22;6919;52.344;14.518;2023-07-29T10:42:07;27.00;99.90
13694;DHT22;6919;52.344;14.518;2023-07-29T10:44:48;26.30;99.90
13694;DHT22;6919;52.344;14.518;2023-07-29T10:47:21;26.00;99.90
13694;DHT22;6919;52.344;14.518;2023-07-29T10:49:53;26.00;99.90
13694;DHT22;6919;52.344;14.518;2023-07-29T10:52:32;26.10;99.90
13694;DHT22;6919;52.344;14.518;2023-07-29T10:55:28;26.20;99.90
13694;DHT22;6919;52.344;14.518;2023-07-29T10:58:09;26.10;99.90
13694;DHT22;6919;52.344;14.518;2023-07-29T11:00:41;26.40;99.90
13694;DHT22;6919;52.344;14.518;2023-07-29T11:03:13;26.50;99.90
13694;DHT22;6919;52.344;14.518;2023-07-29T11:05:45;26.60;99.90
13694;DHT22;6919;52.344;14.518;2023-07-29T11:08:19;26.80;99.90
13694;DHT22;6919;52.344;14.518;2023-07-29T11:11:07;26.70;99.90
13694;DHT22;6919;52.344;14.518;2023-07-29T11:13:37;26.90;99.90
13694;DHT22;6919;52.344;14.518;2023-07-29T11:16:06;27.20;99.90
13694;DHT22;6919;52.344;14.518;2023-07-29T11:18:36;27.20;99.90
13694;DHT22;6919;52.344;14.518;2023-07-29T11:21:04;27.10;99.90
13694;DHT22;6919;52.344;14.518;2023-07-29T11:23:35;27.20;98.30
13694;DHT22;6919;52.344;14.518;2023-07-29T11:26:04;27.40;99.50
13694;DHT22;6919;52.344;14.518;2023-07-29T11:28:38;27.10;98.50
13694;DHT22;6919;52.344;14.518;2023-07-29T11:31:07;26.80;98.10
13694;DHT22;6919;52.344;14.518;2023-07-29T11:33:39;26.60;99.90
13694;DHT22;6919;52.344;14.518;2023-07-29T11:36:17;26.90;99.50
13694;DHT22;6919;52.344;14.518;2023-07-29T11:38:47;26.90;98.60
13694;DHT22;6919;52.344;14.518;2023-07-29T11:41:19;26.90;98.70
13694;DHT22;6919;52.344;14.518;2023-07-29T11:43:49;26.90;99.40
13694;DHT22;6919;52.344;14.518;2023-07-29T11:46:21;26.90;98.50
13694;DHT22;6919;52.344;14.518;2023-07-29T11:48:54;26.90;97.70
13694;DHT22;6919;52.344;14.518;2023-07-29T11:51:23;27.20;97.50
13694;DHT22;6919;52.344;14.518;2023-07-29T11:53:54;27.10;94.90
13694;DHT22;6919;52.344;14.518;2023-07-29T11:56:23;27.50;95.70
13694;DHT22;6919;52.344;14.518;2023-07-29T11:58:52;27.60;93.30
13694;DHT22;6919;52.344;14.518;2023-07-29T12:01:22;27.30;91.60
13694;DHT22;6919;52.344;14.518;2023-07-29T12:03:52;27.10;92.50
13694;DHT22;6919;52.344;14.518;2023-07-29T12:06:22;27.40;94.50
13694;DHT22;6919;52.344;14.518;2023-07-29T12:08:51;27.60;93.80
13694;DHT22;6919;52.344;14.518;2023-07-29T12:11:20;27.70;92.30
13694;DHT22;6919;52.344;14.518;2023-07-29T12:13:49;27.60;91.60
13694;DHT22;6919;52.344;14.518;2023-07-29T12:16:17;27.40;91.80
13694;DHT22;6919;52.344;14.518;2023-07-29T12:18:46;27.10;92.60
13694;DHT22;6919;52.344;14.518;2023-07-29T12:21:17;26.90;94.30
13694;DHT22;6919;52.344;14.518;2023-07-29T12:23:47;26.70;94.90
13694;DHT22;6919;52.344;14.518;2023-07-29T12:26:18;26.60;96.40
13694;DHT22;6919;52.344;14.518;2023-07-29T12:28:46;26.80;97.40
13694;DHT22;6919;52.344;14.518;2023-07-29T12:31:15;27.10;96.30
13694;DHT22;6919;52.344;14.518;2023-07-29T12:33:43;27.20;95.20
13694;DHT22;6919;52.344;14.518;2023-07-29T12:36:11;27.60;93.20
13694;DHT22;6919;52.344;14.518;2023-07-29T12:38:42;27.80;92.10
13694;DHT22;6919;52.344;14.518;2023-07-29T12:41:11;27.70;90.90
13694;DHT22;6919;52.344;14.518;2023-07-29T12:43:39;27.90;90.20
13694;DHT22;6919;52.344;14.518;2023-07-29T12:46:07;27.70;87.30
13694;DHT22;6919;52.344;14.518;2023-07-29T12:48:35;27.10;87.00
13694;DHT22;6919;52.344;14.518;2023-07-29T12:51:04;26.90;90.70
13694;DHT22;6919;52.344;14.518;2023-07-29T12:53:32;26.70;91.90
13694;DHT22;6919;52.344;14.518;2023-07-29T12:56:02;26.50;92.40
13694;DHT22;6919;52.344;14.518;2023-07-29T12:58:30;26.20;95.80
13694;DHT22;6919;52.344;14.518;2023-07-29T13:00:58;26.20;95.10
13694;DHT22;6919;52.344;14.518;2023-07-29T13:03:26;26.00;99.90
13694;DHT22;6919;52.344;14.518;2023-07-29T13:05:56;25.50;98.30
13694;DHT22;6919;52.344;14.518;2023-07-29T13:08:24;25.20;99.50
13694;DHT22;6919;52.344;14.518;2023-07-29T13:10:52;25.10;99.90
13694;DHT22;6919;52.344;14.518;2023-07-29T13:13:22;24.50;99.90
13694;DHT22;6919;52.344;14.518;2023-07-29T13:15:50;23.90;1.00
13694;DHT22;6919;52.344;14.518;2023-07-29T13:18:19;23.70;99.90
13694;DHT22;6919;52.344;14.518;2023-07-29T13:20:49;23.20;99.90
13694;DHT22;6919;52.344;14.518;2023-07-29T13:23:17;23.00;99.90
13694;DHT22;6919;52.344;14.518;2023-07-29T13:25:45;23.00;99.90
13694;DHT22;6919;52.344;14.518;2023-07-29T13:28:14;22.90;99.90
13694;DHT22;6919;52.344;14.518;2023-07-29T13:30:44;22.70;99.90
13694;DHT22;6919;52.344;14.518;2023-07-29T13:33:12;22.60;99.90
13694;DHT22;6919;52.344;14.518;2023-07-29T13:35:41;22.40;99.90
13694;DHT22;6919;52.344;14.518;2023-07-29T13:38:09;22.20;99.90
13694;DHT22;6919;52.344;14.518;2023-07-29T13:40:37;21.90;99.90
13694;DHT22;6919;52.344;14.518;2023-07-29T13:43:06;21.10;99.90
13694;DHT22;6919;52.344;14.518;2023-07-29T13:45:34;19.50;99.90
13694;DHT22;6919;52.344;14.518;2023-07-29T13:48:04;18.70;99.90
13694;DHT22;6919;52.344;14.518;2023-07-29T13:50:33;18.50;99.90
13694;DHT22;6919;52.344;14.518;2023-07-29T13:53:01;18.50;99.90
13694;DHT22;6919;52.344;14.518;2023-07-29T13:55:29;18.60;99.90
13694;DHT22;6919;52.344;14.518;2023-07-29T13:57:57;18.50;99.90
13694;DHT22;6919;52.344;14.518;2023-07-29T14:00:26;18.60;99.90
13694;DHT22;6919;52.344;14.518;2023-07-29T14:02:54;18.60;99.90
13694;DHT22;6919;52.344;14.518;2023-07-29T14:05:24;18.80;99.90
13694;DHT22;6919;52.344;14.518;2023-07-29T14:07:52;19.00;99.90
13694;DHT22;6919;52.344;14.518;2023-07-29T14:10:21;19.00;99.90
13694;DHT22;6919;52.344;14.518;2023-07-29T14:12:49;19.20;99.90
13694;DHT22;6919;52.344;14.518;2023-07-29T14:15:18;19.30;99.90
13694;DHT22;6919;52.344;14.518;2023-07-29T14:17:46;19.30;99.90
13694;DHT22;6919;52.344;14.518;2023-07-29T14:20:14;19.40;99.90
13694;DHT22;6919;52.344;14.518;2023-07-29T14:22:47;19.40;99.90
13694;DHT22;6919;52.344;14.518;2023-07-29T14:25:16;19.30;99.90
13694;DHT22;6919;52.344;14.518;2023-07-29T14:27:45;19.20;99.90
13694;DHT22;6919;52.344;14.518;2023-07-29T14:30:13;19.30;99.90
13694;DHT22;6919;52.344;14.518;2023-07-29T14:32:41;19.30;99.90
13694;DHT22;6919;52.344;14.518;2023-07-29T14:35:10;19.40;99.90
13694;DHT22;6919;52.344;14.518;2023-07-29T14:37:39;19.40;99.90
13694;DHT22;6919;52.344;14.518;2023-07-29T14:40:09;19.50;99.90
13694;DHT22;6919;52.344;14.518;2023-07-29T14:42:38;19.50;99.90
13694;DHT22;6919;52.344;14.518;2023-07-29T14:45:07;19.50;99.90
13694;DHT22;6919;52.344;14.518;2023-07-29T14:47:35;19.60;99.90
13694;DHT22;6919;52.344;14.518;2023-07-29T14:50:04;19.70;99.90
13694;DHT22;6919;52.344;14.518;2023-07-29T14:52:33;19.70;99.90
13694;DHT22;6919;52.344;14.518;2023-07-29T14:55:01;19.80;99.90
13694;DHT22;6919;52.344;14.518;2023-07-29T14:57:32;19.70;99.90
13694;DHT22;6919;52.344;14.518;2023-07-29T15:00:00;19.80;99.90
13694;DHT22;6919;52.344;14.518;2023-07-29T15:02:30;19.90;99.90
13694;DHT22;6919;52.344;14.518;2023-07-29T15:04:58;19.90;99.90
13694;DHT22;6919;52.344;14.518;2023-07-29T15:07:27;19.90;99.90
13694;DHT22;6919;52.344;14.518;2023-07-29T15:09:55;19.80;99.90
13694;DHT22;6919;52.344;14.518;2023-07-29T15:12:24;19.80;99.90
13694;DHT22;6919;52.344;14.518;2023-07-29T15:14:53;20.00;99.90
13694;DHT22;6919;52.344;14.518;2023-07-29T15:17:22;20.00;99.90
13694;DHT22;6919;52.344;14.518;2023-07-29T15:19:51;20.00;99.90
13694;DHT22;6919;52.344;14.518;2023-07-29T15:22:19;19.90;99.90
13694;DHT22;6919;52.344;14.518;2023-07-29T15:24:48;20.00;99.90
13694;DHT22;6919;52.344;14.518;2023-07-29T15:27:16;19.90;99.90
13694;DHT22;6919;52.344;14.518;2023-07-29T15:29:45;20.20;99.90
13694;DHT22;6919;52.344;14.518;2023-07-29T15:32:15;20.60;99.90
13694;DHT22;6919;52.344;14.518;2023-07-29T15:34:43;20.90;99.90
13694;DHT22;6919;52.344;14.518;2023-07-29T15:37:11;21.00;99.90
13694;DHT22;6919;52.344;14.518;2023-07-29T15:39:40;21.10;99.90
13694;DHT22;6919;52.344;14.518;2023-07-29T15:42:09;20.80;99.90
13694;DHT22;6919;52.344;14.518;2023-07-29T15:44:37;20.90;99.90